createdAt,value
2018-02-21T00:02:17.117Z,76.18
2018-02-21T00:04:44.576Z,81.57
2018-02-21T00:07:12.159Z,72.80
2018-02-21T00:09:39.603Z,81.68
2018-02-21T00:12:07.062Z,84.55
2018-02-21T00:14:34.527Z,76.60
2018-02-21T00:17:01.975Z,67.60
2018-02-21T00:19:29.422Z,66.50
2018-02-21T00:21:56.891Z,78.07
2018-02-21T00:24:24.448Z,78.15
2018-02-21T00:26:51.927Z,67.40
2018-02-21T00:29:19.400Z,71.12
2018-02-21T00:31:46.859Z,71.65
2018-02-21T00:34:14.351Z,76.55
2018-02-21T00:36:41.816Z,79.00
2018-02-21T00:39:09.295Z,79.07
2018-02-21T00:41:36.839Z,74.12
2018-02-21T00:44:04.317Z,67.87
2018-02-21T00:46:31.771Z,80.43
2018-02-21T00:48:59.222Z,82.18
2018-02-21T00:51:26.667Z,79.43
2018-02-21T00:53:54.158Z,68.53
2018-02-21T00:56:21.743Z,80.43
2018-02-21T00:58:49.187Z,68.15
2018-02-21T01:01:16.638Z,73.97
2018-02-21T01:03:44.803Z,86.55
2018-02-21T01:06:12.260Z,87.12
2018-02-21T01:08:39.717Z,74.87
2018-02-21T01:11:07.172Z,82.20
2018-02-21T01:13:34.628Z,83.62
2018-02-21T01:16:02.082Z,79.82
2018-02-21T01:18:29.569Z,74.97
2018-02-21T01:20:57.030Z,78.95
2018-02-21T01:23:24.482Z,90.00
2018-02-21T01:25:51.954Z,92.65
2018-02-21T01:28:19.409Z,90.93
2018-02-21T01:30:46.853Z,88.37
2018-02-21T01:33:14.304Z,85.15
2018-02-21T01:35:41.737Z,81.10
2018-02-21T01:38:09.206Z,89.35
2018-02-21T01:40:36.663Z,86.85
2018-02-21T01:43:04.114Z,90.18
2018-02-21T01:45:31.563Z,81.57
2018-02-21T01:47:59.010Z,88.20
2018-02-21T01:50:26.489Z,85.18
2018-02-21T01:52:53.931Z,88.65
2018-02-21T01:55:21.383Z,83.72
2018-02-21T01:57:48.847Z,81.47
2018-02-21T02:00:16.333Z,89.43
2018-02-21T02:02:43.779Z,85.18
2018-02-21T02:05:11.231Z,96.35
2018-02-21T02:07:38.699Z,89.93
2018-02-21T02:10:06.144Z,83.65
2018-02-21T02:12:33.591Z,87.72
2018-02-21T02:15:01.062Z,91.32
2018-02-21T02:17:28.504Z,79.80
2018-02-21T02:19:55.968Z,76.85
2018-02-21T02:22:23.410Z,93.45
2018-02-21T02:24:50.873Z,92.25
2018-02-21T02:27:18.335Z,90.80
2018-02-21T02:29:45.786Z,87.07
2018-02-21T02:32:13.250Z,96.93
2018-02-21T02:34:40.738Z,96.80
2018-02-21T02:37:08.203Z,75.10
2018-02-21T02:40:07.131Z,83.60
2018-02-21T02:42:34.579Z,89.13
2018-02-21T02:45:02.049Z,93.35
2018-02-21T02:47:29.505Z,80.15
2018-02-21T02:49:56.962Z,77.85
2018-02-21T02:52:24.426Z,81.37
2018-02-21T02:54:51.869Z,84.95
2018-02-21T02:57:19.330Z,71.15
2018-02-21T02:59:46.815Z,84.47
2018-02-21T03:02:14.287Z,70.82
2018-02-21T03:04:41.734Z,70.32
2018-02-21T03:07:09.203Z,81.65
2018-02-21T03:09:36.657Z,74.82
2018-02-21T03:12:04.107Z,75.57
2018-02-21T03:14:31.601Z,83.50
2018-02-21T03:16:59.062Z,86.50
2018-02-21T03:19:26.532Z,75.10
2018-02-21T03:21:54.010Z,76.60
2018-02-21T03:24:21.460Z,80.10
2018-02-21T03:26:48.939Z,87.45
2018-02-21T03:29:16.415Z,81.53
2018-02-21T03:31:44.389Z,76.05
2018-02-21T03:34:11.868Z,91.57
2018-02-21T03:36:39.318Z,86.32
2018-02-21T03:39:06.784Z,78.57
2018-02-21T03:41:34.235Z,82.43
2018-02-21T03:44:01.683Z,78.75
2018-02-21T03:46:29.127Z,81.00
2018-02-21T03:48:56.586Z,77.20
2018-02-21T03:51:24.101Z,72.25
2018-02-21T03:53:51.601Z,85.00
2018-02-21T03:56:19.079Z,87.32
2018-02-21T03:58:46.549Z,77.93
2018-02-21T04:01:14.011Z,86.32
2018-02-21T04:03:41.476Z,98.43
2018-02-21T04:06:08.923Z,74.65
2018-02-21T04:08:36.373Z,85.62
2018-02-21T04:11:03.829Z,82.60
2018-02-21T04:13:31.287Z,80.43
2018-02-21T04:15:58.754Z,73.45
2018-02-21T04:18:26.233Z,83.78
2018-02-21T04:20:53.682Z,83.05
2018-02-21T04:23:21.146Z,88.32
2018-02-21T04:25:48.620Z,86.15
2018-02-21T04:28:16.069Z,91.47
2018-02-21T04:30:43.531Z,90.55
2018-02-21T04:33:11.058Z,85.82
2018-02-21T04:35:38.511Z,84.75
2018-02-21T04:38:05.970Z,77.62
2018-02-21T04:40:33.452Z,79.87
2018-02-21T04:43:00.952Z,82.62
2018-02-21T04:45:28.410Z,89.15
2018-02-21T04:47:55.868Z,77.22
2018-02-21T04:50:24.161Z,72.25
2018-02-21T04:52:51.615Z,87.60
2018-02-21T04:55:21.462Z,81.37
2018-02-21T04:57:54.300Z,88.60
2018-02-21T05:00:32.601Z,69.87
2018-02-21T05:03:00.047Z,73.85
2018-02-21T05:05:27.508Z,81.75
2018-02-21T05:07:54.995Z,69.18
2018-02-21T05:10:22.448Z,75.18
2018-02-21T05:12:49.898Z,87.60
2018-02-21T05:15:17.344Z,70.20
2018-02-21T05:17:44.818Z,72.20
2018-02-21T05:20:12.250Z,72.93
2018-02-21T05:22:39.687Z,71.55
2018-02-21T05:25:07.171Z,75.93
2018-02-21T05:27:34.616Z,73.10
2018-02-21T05:30:02.094Z,78.12
2018-02-21T05:32:29.549Z,81.97
2018-02-21T05:34:57.024Z,72.30
2018-02-21T05:37:24.465Z,92.60
2018-02-21T05:39:51.932Z,81.37
2018-02-21T05:42:19.401Z,82.25
2018-02-21T05:44:46.856Z,84.95
2018-02-21T05:47:14.309Z,81.07
2018-02-21T05:49:41.767Z,73.50
2018-02-21T05:52:09.237Z,76.47
2018-02-21T05:54:36.911Z,80.40
2018-02-21T05:57:04.370Z,78.28
2018-02-21T05:59:31.868Z,81.30
2018-02-21T06:02:00.326Z,89.30
2018-02-21T06:04:27.798Z,93.20
2018-02-21T06:06:55.235Z,97.15
2018-02-21T06:09:22.950Z,105.30
2018-02-21T06:11:50.406Z,90.20
2018-02-21T06:14:17.892Z,99.60
2018-02-21T06:16:45.352Z,90.00
2018-02-21T06:19:12.946Z,100.60
2018-02-21T06:21:40.419Z,104.50
2018-02-21T06:24:07.886Z,93.35
2018-02-21T06:26:35.331Z,109.90
2018-02-21T06:29:02.806Z,96.15
2018-02-21T06:31:30.283Z,98.07
2018-02-21T06:33:57.800Z,104.65
2018-02-21T06:36:25.262Z,107.12
2018-02-21T06:38:52.734Z,115.22
2018-02-21T06:41:20.197Z,114.60
2018-02-21T06:43:47.726Z,120.78
2018-02-21T06:46:15.130Z,103.15
2018-02-21T06:48:42.612Z,111.28
2018-02-21T06:51:10.108Z,115.90
2018-02-21T06:53:37.620Z,111.62
2018-02-21T06:56:05.087Z,101.45
2018-02-21T06:58:32.538Z,102.93
2018-02-21T07:00:59.992Z,103.10
2018-02-21T07:03:27.444Z,109.78
2018-02-21T07:05:54.915Z,114.32
2018-02-21T07:08:22.408Z,101.50
2018-02-21T07:10:49.858Z,122.93
2018-02-21T07:13:17.326Z,125.72
2018-02-21T07:15:44.776Z,118.93
2018-02-21T07:18:12.235Z,114.85
2018-02-21T07:20:39.688Z,120.47
2018-02-21T07:23:07.175Z,115.50
2018-02-21T07:25:34.614Z,109.63
2018-02-21T07:28:02.070Z,123.00
2018-02-21T07:30:29.639Z,106.35
2018-02-21T07:32:57.106Z,126.60
2018-02-21T07:35:24.559Z,117.53
2018-02-21T07:37:52.054Z,110.90
2018-02-21T07:40:19.519Z,114.00
2018-02-21T07:42:47.179Z,119.87
2018-02-21T07:45:14.643Z,103.97
2018-02-21T07:47:42.113Z,119.15
2018-02-21T07:50:09.631Z,122.43
2018-02-21T07:52:38.370Z,115.62
2018-02-21T07:55:05.822Z,110.30
2018-02-21T07:57:33.297Z,104.87
2018-02-21T08:00:00.760Z,104.93
2018-02-21T08:02:28.245Z,119.72
2018-02-21T08:04:55.731Z,116.75
2018-02-21T08:07:23.210Z,120.75
2018-02-21T08:09:50.671Z,126.55
2018-02-21T08:12:18.132Z,124.32
2018-02-21T08:14:45.595Z,112.43
2018-02-21T08:17:13.047Z,108.50
2018-02-21T08:19:40.849Z,104.72
2018-02-21T08:22:08.380Z,122.30
2018-02-21T08:24:36.354Z,97.90
2018-02-21T08:27:03.946Z,116.90
2018-02-21T08:29:31.407Z,112.88
2018-02-21T08:31:59.291Z,111.03
2018-02-21T08:34:26.813Z,112.47
2018-02-21T08:36:56.271Z,104.82
2018-02-21T08:39:23.842Z,109.50
2018-02-21T08:41:51.488Z,109.72
2018-02-21T08:44:18.938Z,109.60
2018-02-21T08:46:46.416Z,111.90
2018-02-21T08:49:13.878Z,115.55
2018-02-21T08:51:41.686Z,117.68
2018-02-21T08:54:09.244Z,131.90
2018-02-21T08:56:36.776Z,112.53
2018-02-21T08:59:04.255Z,113.12
2018-02-21T09:01:31.695Z,91.80
2018-02-21T09:03:59.150Z,104.75
2018-02-21T09:06:26.763Z,109.07
2018-02-21T09:08:54.236Z,109.22
2018-02-21T09:11:21.715Z,92.18
2018-02-21T09:13:49.203Z,113.40
2018-02-21T09:16:16.651Z,116.88
2018-02-21T09:18:44.139Z,101.80
2018-02-21T09:21:11.649Z,109.90
2018-02-21T09:23:39.108Z,111.35
2018-02-21T09:26:06.566Z,111.68
2018-02-21T09:28:34.030Z,142.98
2018-02-21T09:31:01.513Z,128.10
2018-02-21T09:33:28.976Z,106.90
2018-02-21T09:35:56.442Z,105.70
2018-02-21T09:38:23.917Z,104.40
2018-02-21T09:40:51.379Z,118.00
2018-02-21T09:43:18.854Z,106.22
2018-02-21T09:45:46.312Z,107.30
2018-02-21T09:48:13.810Z,107.97
2018-02-21T09:50:41.305Z,109.70
2018-02-21T09:53:08.765Z,104.95
2018-02-21T09:55:36.222Z,112.50
2018-02-21T09:58:03.666Z,124.50
2018-02-21T10:00:31.126Z,102.25
2018-02-21T10:02:58.576Z,96.03
2018-02-21T10:05:26.035Z,111.07
2018-02-21T10:07:53.511Z,107.53
2018-02-21T10:10:20.974Z,113.25
2018-02-21T10:12:48.438Z,115.75
2018-02-21T10:15:15.882Z,105.87
2018-02-21T10:17:43.362Z,104.72
2018-02-21T10:20:10.811Z,110.47
2018-02-21T10:22:38.252Z,104.60
2018-02-21T10:25:05.713Z,93.50
2018-02-21T10:27:33.162Z,121.35
2018-02-21T10:30:00.618Z,108.85
2018-02-21T10:32:28.064Z,108.90
2018-02-21T10:34:55.526Z,96.15
2018-02-21T10:37:22.973Z,103.55
2018-02-21T10:39:50.428Z,103.95
2018-02-21T10:42:17.877Z,102.30
2018-02-21T10:44:45.323Z,101.43
2018-02-21T10:47:12.783Z,102.97
2018-02-21T10:49:40.238Z,116.37
2018-02-21T10:52:07.689Z,98.18
2018-02-21T10:54:35.149Z,107.40
2018-02-21T10:57:02.630Z,92.43
2018-02-21T10:59:30.112Z,100.18
2018-02-21T11:01:57.578Z,102.93
2018-02-21T11:04:25.026Z,106.87
2018-02-21T11:06:52.486Z,100.75
2018-02-21T11:09:19.941Z,104.75
2018-02-21T11:11:47.394Z,125.43
2018-02-21T11:14:14.888Z,105.97
2018-02-21T11:16:42.364Z,115.40
2018-02-21T11:19:09.832Z,113.55
2018-02-21T11:21:37.324Z,116.55
2018-02-21T11:24:05.385Z,107.32
2018-02-21T11:26:32.846Z,113.93
2018-02-21T11:29:00.310Z,114.05
2018-02-21T11:31:27.767Z,115.57
2018-02-21T11:33:55.221Z,124.32
2018-02-21T11:36:22.675Z,99.37
2018-02-21T11:38:50.127Z,119.07
2018-02-21T11:41:17.603Z,114.00
2018-02-21T11:43:45.048Z,108.12
2018-02-21T11:46:12.497Z,102.45
2018-02-21T11:48:39.974Z,96.35
2018-02-21T11:51:07.451Z,89.62
2018-02-21T11:53:34.885Z,87.03
2018-02-21T11:56:02.364Z,97.75
2018-02-21T11:58:29.848Z,84.95
2018-02-21T12:00:57.302Z,89.75
2018-02-21T12:03:24.755Z,93.10
2018-02-21T12:05:52.238Z,86.70
2018-02-21T12:08:19.704Z,93.70
2018-02-21T12:10:47.147Z,84.78
2018-02-21T12:13:15.421Z,86.85
2018-02-21T12:15:42.891Z,93.00
2018-02-21T12:18:10.395Z,93.07
2018-02-21T12:20:37.842Z,80.65
2018-02-21T12:23:05.348Z,89.97
2018-02-21T12:25:32.824Z,75.78
2018-02-21T12:28:00.450Z,77.75
2018-02-21T12:30:27.942Z,80.87
2018-02-21T12:32:56.180Z,85.77
2018-02-21T12:35:23.657Z,93.62
2018-02-21T12:37:51.134Z,93.93
2018-02-21T12:40:24.202Z,93.03
2018-02-21T12:42:51.644Z,83.00
2018-02-21T12:45:19.707Z,80.97
2018-02-21T12:47:47.224Z,87.77
2018-02-21T12:50:14.787Z,75.80
2018-02-21T12:52:42.267Z,84.60
2018-02-21T12:55:21.019Z,75.80
2018-02-21T12:57:51.223Z,75.67
2018-02-21T13:00:18.838Z,77.13
2018-02-21T13:02:46.316Z,78.77
2018-02-21T13:05:22.493Z,69.43
2018-02-21T13:07:49.954Z,76.93
2018-02-21T13:10:17.403Z,68.10
2018-02-21T13:12:44.847Z,74.30
2018-02-21T13:15:12.339Z,81.60
2018-02-21T13:17:39.788Z,83.23
2018-02-21T13:20:07.242Z,78.90
2018-02-21T13:22:34.826Z,80.03
2018-02-21T13:25:02.274Z,83.37
2018-02-21T13:27:29.728Z,74.00
2018-02-21T13:29:57.182Z,80.97
2018-02-21T13:32:24.622Z,82.77
2018-02-21T13:34:52.141Z,75.23
2018-02-21T13:37:19.596Z,80.77
2018-02-21T13:39:47.042Z,73.80
2018-02-21T13:42:14.593Z,77.07
2018-02-21T13:44:42.201Z,83.40
2018-02-21T13:47:09.657Z,81.07
2018-02-21T13:49:37.102Z,72.30
2018-02-21T13:52:04.564Z,67.17
2018-02-21T13:54:32.004Z,72.10
2018-02-21T13:56:59.466Z,73.17
2018-02-21T13:59:26.917Z,69.13
2018-02-21T14:01:54.377Z,77.70
2018-02-21T14:04:21.834Z,66.10
2018-02-21T14:06:49.284Z,66.57
2018-02-21T14:09:16.750Z,64.07
2018-02-21T14:11:44.206Z,75.60
2018-02-21T14:17:14.041Z,67.67
2018-02-21T14:19:41.493Z,68.80
2018-02-21T14:22:09.139Z,78.53
2018-02-21T14:24:36.729Z,70.13
2018-02-21T14:29:56.674Z,71.80
2018-02-21T14:32:24.160Z,68.90
2018-02-21T14:34:51.705Z,65.40
2018-02-21T14:37:19.162Z,66.53
2018-02-21T14:39:46.616Z,63.20
2018-02-21T14:42:14.071Z,70.93
2018-02-21T14:44:41.511Z,67.40
2018-02-21T14:47:08.965Z,66.70
2018-02-21T14:49:36.414Z,64.90
2018-02-21T14:52:03.881Z,64.97
2018-02-21T14:54:31.330Z,68.73
2018-02-21T14:56:58.781Z,73.57
2018-02-21T14:59:26.301Z,72.50
2018-02-21T15:07:38.645Z,69.27
2018-02-21T15:10:06.119Z,71.60
2018-02-21T15:12:33.556Z,71.37
2018-02-21T15:15:01.004Z,67.87
2018-02-21T15:17:28.569Z,71.90
2018-02-21T15:19:56.198Z,71.63
2018-02-21T15:22:23.694Z,69.27
2018-02-21T15:24:51.190Z,65.13
2018-02-21T15:27:18.631Z,67.43
2018-02-21T15:29:46.094Z,63.53
2018-02-21T15:32:14.047Z,62.70
2018-02-21T15:34:41.495Z,68.80
2018-02-21T15:37:08.958Z,65.17
2018-02-21T15:39:36.421Z,60.50
2018-02-21T15:42:03.898Z,66.67
2018-02-21T15:44:31.350Z,73.10
2018-02-21T15:46:58.829Z,62.23
2018-02-21T15:49:26.302Z,66.60
2018-02-21T15:51:53.744Z,62.93
2018-02-21T15:54:21.186Z,69.10
2018-02-21T15:56:48.631Z,78.63
2018-02-21T15:59:16.089Z,71.13
2018-02-21T16:01:43.581Z,79.20
2018-02-21T16:04:11.029Z,74.30
2018-02-21T16:06:38.488Z,92.47
2018-02-21T16:09:05.938Z,81.47
2018-02-21T16:11:33.370Z,88.47
2018-02-21T16:14:00.900Z,76.00
2018-02-21T16:16:28.392Z,85.75
2018-02-21T16:18:55.881Z,96.65
2018-02-21T16:21:23.350Z,84.40
2018-02-21T16:23:50.794Z,73.05
2018-02-21T16:26:18.251Z,76.43
2018-02-21T16:28:45.714Z,79.65
2018-02-21T16:31:13.184Z,75.32
2018-02-21T16:33:40.759Z,76.40
2018-02-21T16:36:08.206Z,75.50
2018-02-21T16:38:35.670Z,73.97
2018-02-21T16:41:03.153Z,78.60
2018-02-21T16:43:30.609Z,81.57
2018-02-21T16:45:58.064Z,74.85
2018-02-21T16:48:25.582Z,74.53
2018-02-21T16:50:53.081Z,77.55
2018-02-21T16:53:20.522Z,86.55
2018-02-21T16:55:47.961Z,80.78
2018-02-21T16:58:15.421Z,84.43
2018-02-21T17:00:42.867Z,67.20
2018-02-21T17:03:10.918Z,69.85
2018-02-21T17:05:38.361Z,77.82
2018-02-21T17:08:05.848Z,73.28
2018-02-21T17:10:33.306Z,74.82
2018-02-21T17:13:01.705Z,82.40
2018-02-21T17:15:29.155Z,72.72
2018-02-21T17:17:56.630Z,66.10
2018-02-21T17:20:24.138Z,77.53
2018-02-21T17:22:51.557Z,78.05
2018-02-21T17:25:19.022Z,71.47
2018-02-21T17:27:46.500Z,86.68
2018-02-21T17:30:14.109Z,69.45
2018-02-21T17:32:42.069Z,71.35
2018-02-21T17:35:09.698Z,74.72
2018-02-21T17:37:37.241Z,75.97
2018-02-21T17:45:50.884Z,67.72
2018-02-21T17:48:19.562Z,68.47
2018-02-21T17:50:47.675Z,69.25
2018-02-21T17:53:16.435Z,80.00
2018-02-21T17:55:45.582Z,69.90
2018-02-21T17:58:14.613Z,78.70
2018-02-21T18:00:43.346Z,72.43
2018-02-21T18:03:11.860Z,69.07
2018-02-21T18:05:40.972Z,57.20
2018-02-21T18:08:09.912Z,61.60
2018-02-21T18:10:38.353Z,58.05
2018-02-21T18:13:06.474Z,58.83
2018-02-21T18:15:35.041Z,58.70
2018-02-21T18:18:03.666Z,63.87
2018-02-21T18:20:32.359Z,53.05
2018-02-21T18:22:59.956Z,55.60
2018-02-21T18:25:27.420Z,60.80
2018-02-21T18:27:54.911Z,58.97
2018-02-21T18:30:22.537Z,49.63
2018-02-21T18:32:49.973Z,57.47
2018-02-21T18:35:17.460Z,52.05
2018-02-21T18:37:44.962Z,54.28
2018-02-21T18:40:12.418Z,55.42
2018-02-21T18:42:39.894Z,56.22
2018-02-21T18:45:07.344Z,52.55
2018-02-21T18:47:34.858Z,46.30
2018-02-21T18:50:02.446Z,59.13
2018-02-21T18:52:29.958Z,50.25
2018-02-21T18:54:57.705Z,51.70
2018-02-21T18:57:25.255Z,57.38
2018-02-21T18:59:52.726Z,52.45
2018-02-21T19:05:26.983Z,46.65
2018-02-21T19:07:54.437Z,66.95
2018-02-21T19:10:21.908Z,64.68
2018-02-21T19:12:59.662Z,55.95
2018-02-21T19:18:19.893Z,55.08
2018-02-21T19:20:47.461Z,56.47
2018-02-21T19:23:15.087Z,54.72
2018-02-21T19:25:44.238Z,56.78
2018-02-21T19:28:12.868Z,57.25
2018-02-21T19:30:40.594Z,51.50
2018-02-21T19:33:08.151Z,57.80
2018-02-21T19:35:36.420Z,59.28
2018-02-21T19:38:04.241Z,62.35
2018-02-21T19:40:34.722Z,63.75
2018-02-21T19:43:03.613Z,57.47
2018-02-21T19:45:31.111Z,63.95
2018-02-21T19:47:59.680Z,61.37
2018-02-21T19:50:28.066Z,61.22
2018-02-21T19:52:57.092Z,58.40
2018-02-21T19:55:25.447Z,57.70
2018-02-21T19:57:54.480Z,64.18
2018-02-21T20:00:23.386Z,65.00
2018-02-21T20:02:52.433Z,61.53
2018-02-21T20:05:21.377Z,60.67
2018-02-21T20:07:50.163Z,59.53
2018-02-21T20:10:18.783Z,55.28
2018-02-21T20:12:47.928Z,69.30
2018-02-21T20:15:17.057Z,64.32
2018-02-21T20:17:45.607Z,61.47
2018-02-21T20:20:14.619Z,58.47
2018-02-21T20:22:43.857Z,58.90
2018-02-21T20:25:13.324Z,66.22
2018-02-21T20:27:42.418Z,57.45
2018-02-21T20:30:15.696Z,61.35
2018-02-21T20:32:44.890Z,54.70
2018-02-21T20:35:13.515Z,61.58
2018-02-21T20:37:42.496Z,65.37
2018-02-21T20:40:12.014Z,62.22
2018-02-21T20:42:40.822Z,58.35
2018-02-21T20:45:10.216Z,63.47
2018-02-21T20:47:39.320Z,57.53
2018-02-21T20:50:23.053Z,63.28
2018-02-21T20:52:52.401Z,67.03
2018-02-21T20:55:22.269Z,60.80
2018-02-21T20:57:51.202Z,58.87
2018-02-21T21:00:20.437Z,58.75
2018-02-21T21:02:49.330Z,62.38
2018-02-21T21:05:18.709Z,67.82
2018-02-21T21:07:48.685Z,59.70
2018-02-21T21:10:18.504Z,58.83
2018-02-21T21:12:48.515Z,57.45
2018-02-21T21:15:17.268Z,68.80
2018-02-21T21:17:46.276Z,58.20
2018-02-21T21:20:16.737Z,61.55
2018-02-21T21:22:46.024Z,65.57
2018-02-21T21:25:17.457Z,64.43
2018-02-21T21:27:46.394Z,69.60
2018-02-21T21:30:14.918Z,62.03
2018-02-21T21:32:43.309Z,74.40
2018-02-21T21:35:11.051Z,58.83
2018-02-21T21:37:38.513Z,66.18
2018-02-21T21:40:05.994Z,63.38
2018-02-21T21:42:33.438Z,67.40
2018-02-21T21:45:00.890Z,66.25
2018-02-21T21:47:28.343Z,63.95
2018-02-21T21:49:55.808Z,64.85
2018-02-21T21:52:23.310Z,61.45
2018-02-21T21:54:50.774Z,59.58
2018-02-21T21:57:18.231Z,77.30
2018-02-21T21:59:47.172Z,73.25
2018-02-21T22:02:16.198Z,58.80
2018-02-21T22:04:45.729Z,73.97
2018-02-21T22:07:13.682Z,61.00
2018-02-21T22:09:42.159Z,65.20
2018-02-21T22:12:12.562Z,71.70
2018-02-21T22:14:41.348Z,68.43
2018-02-21T22:17:09.643Z,84.57
2018-02-21T22:19:37.146Z,64.70
2018-02-21T22:22:06.423Z,69.45
2018-02-21T22:24:34.242Z,64.75
2018-02-21T22:27:07.673Z,61.53
2018-02-21T22:29:36.793Z,69.12
2018-02-21T22:32:05.884Z,75.05
2018-02-21T22:34:34.708Z,61.78
2018-02-21T22:37:04.101Z,75.97
2018-02-21T22:39:33.718Z,68.57
2018-02-21T22:42:02.778Z,60.17
2018-02-21T22:44:32.162Z,72.43
2018-02-21T22:47:01.420Z,66.15
2018-02-21T22:49:30.704Z,67.10
2018-02-21T22:51:59.511Z,58.47
2018-02-21T22:54:28.559Z,59.97
2018-02-21T22:56:57.631Z,62.38
2018-02-21T22:59:26.874Z,64.53
2018-02-21T23:01:56.167Z,68.65
2018-02-21T23:04:24.895Z,74.55
2018-02-21T23:06:53.728Z,73.80
2018-02-21T23:09:22.792Z,51.75
2018-02-21T23:11:51.456Z,67.85
2018-02-21T23:14:20.513Z,69.30
2018-02-21T23:16:49.015Z,72.70
2018-02-21T23:19:19.461Z,63.92
2018-02-21T23:21:49.062Z,62.30
2018-02-21T23:24:18.264Z,66.78
2018-02-21T23:26:47.610Z,75.37
2018-02-21T23:29:16.919Z,71.97
2018-02-21T23:31:45.926Z,61.97
2018-02-21T23:34:15.089Z,60.88
2018-02-21T23:36:44.372Z,68.12
2018-02-21T23:39:17.608Z,67.43
2018-02-21T23:41:46.321Z,76.32
2018-02-21T23:44:15.351Z,73.28
2018-02-21T23:46:44.832Z,62.20
2018-02-21T23:49:14.200Z,68.15
2018-02-21T23:51:43.524Z,66.00
2018-02-21T23:54:12.093Z,66.05
2018-02-21T23:56:41.410Z,54.13
2018-02-21T23:59:10.188Z,58.08
